»·PEaware :: N115LW KHWD-O22

N115LW :: KHWD-O22

FLIGHT INFORMATION

Flight Status: Arrived
Operator: Privately registered:
United States
More flights under this callsign
Pilot: Lee W. (44)
Aircraft: BEECH AIRCRAFT DEBONAIR BONANZA
(BE33)
More flights by this aircraft type
Origin: KHWD Hayward Executive
United States
Destination: O22 Columbia
United States
More flights between these airports :: More routes between these airports
Route: GINJU V195 ECA V244 HABXU
File this flight plan on PilotEdge
Remarks:
Altitude:
(Current/Filed)
11,000ft
Speed:
(Current/Filed)
170kts
Departed: 12-May-12 06:42 PM
Arrived: 12-May-12 07:30 PM
Distance/Time
Traveled:
84nm/0:48
Distance/Time
To Go:
Arrived

Flight Plot

Page will automatically refresh every two minutes.


Map Options




Map Legend


Flown Route
Filed Route
Departure Airport
Arrival Airport
Navaid (VOR, NDB)
Fix

Horizontal Profiles

Position Reports

Time Latitude Longitude Heading Altitude Ground
Speed
12-May-12 18:32 37.660310 -122.118539 209 54ft 0kts
12-May-12 18:33 37.660310 -122.118539 209 54ft 0kts
12-May-12 18:34 37.660310 -122.118539 209 54ft 0kts
12-May-12 18:35 37.660310 -122.118539 209 54ft 0kts
12-May-12 18:36 37.660310 -122.118539 209 54ft 0kts
12-May-12 18:37 37.660310 -122.118539 209 54ft 0kts
12-May-12 18:38 37.659622 -122.118958 180 54ft 13kts
12-May-12 18:39 37.658520 -122.117821 214 54ft 0kts
12-May-12 18:40 37.658516 -122.117824 217 54ft 1kts
12-May-12 18:41 37.659595 -122.120998 299 55ft 56kts
12-May-12 18:42 37.665780 -122.134308 283 232ft 81kts
12-May-12 18:43 37.653605 -122.147263 175 667ft 125kts
12-May-12 18:44 37.637597 -122.129415 127 1054ft 144kts
12-May-12 18:45 37.625051 -122.108842 120 1491ft 145kts
12-May-12 18:46 37.626037 -122.072688 76 2167ft 138kts
12-May-12 18:47 37.630920 -122.033150 76 2936ft 136kts
12-May-12 18:48 37.636242 -121.990289 76 3790ft 131kts
12-May-12 18:49 37.641473 -121.948002 76 4568ft 126kts
12-May-12 18:50 37.646886 -121.904920 76 5183ft 130kts
12-May-12 18:51 37.651124 -121.873121 76 5674ft 129kts
12-May-12 18:52 37.656991 -121.829286 76 6373ft 125kts
12-May-12 18:53 37.661958 -121.790356 76 6911ft 115kts
12-May-12 18:54 37.667540 -121.747431 76 7244ft 138kts
12-May-12 18:55 37.674626 -121.696821 76 7569ft 156kts
12-May-12 18:56 37.682430 -121.642079 76 7995ft 158kts
12-May-12 18:57 37.692522 -121.590593 66 8583ft 145kts
12-May-12 18:58 37.705168 -121.544926 62 9165ft 133kts
12-May-12 18:59 37.717917 -121.504041 59 9747ft 118kts
12-May-12 19:00 37.729362 -121.469255 57 10309ft 98kts
12-May-12 19:01 37.739929 -121.438353 57 10601ft 100kts
12-May-12 19:02 37.751507 -121.404888 58 10870ft 106kts
12-May-12 19:03 37.763891 -121.369390 58 11018ft 124kts
12-May-12 19:04 37.781928 -121.317792 60 11014ft 152kts
12-May-12 19:05 37.799549 -121.267450 61 10906ft 169kts
12-May-12 19:06 37.815987 -121.220250 61 10129ft 191kts
12-May-12 19:07 37.834392 -121.156680 84 9163ft 205kts
12-May-12 19:08 37.837574 -121.086009 82 8196ft 206kts
12-May-12 19:09 37.841406 -121.014565 82 7214ft 205kts
12-May-12 19:10 37.845500 -120.943494 82 6228ft 203kts
12-May-12 19:11 37.849905 -120.880381 79 5999ft 176kts
12-May-12 19:12 37.854237 -120.833107 79 5994ft 143kts
12-May-12 19:13 37.857477 -120.794216 79 5993ft 116kts
12-May-12 19:14 37.860084 -120.759502 79 6005ft 122kts
12-May-12 19:15 37.862478 -120.720238 82 5432ft 145kts
12-May-12 19:16 37.866829 -120.681650 56 5011ft 133kts
12-May-12 19:17 37.878777 -120.653396 56 5001ft 114kts
12-May-12 19:18 37.889498 -120.626522 66 5023ft 108kts
12-May-12 19:19 37.894951 -120.598707 70 4997ft 105kts
12-May-12 19:20 37.899836 -120.572342 70 5002ft 99kts
12-May-12 19:21 37.906522 -120.546125 61 4873ft 110kts
12-May-12 19:22 37.916492 -120.516681 59 4543ft 130kts
12-May-12 19:23 37.937042 -120.486422 43 4027ft 133kts
12-May-12 19:24 37.955135 -120.461308 43 3958ft 105kts
12-May-12 19:25 37.968130 -120.441013 45 3479ft 85kts
12-May-12 19:26 37.984476 -120.425533 17 2930ft 84kts
12-May-12 19:27 38.004659 -120.420473 8 2459ft 81kts
12-May-12 19:28 38.025506 -120.414151 7 2135ft 71kts
12-May-12 19:29 38.030415 -120.413603 277 2121ft 0kts

Navigation Log

Ident Type
Flight plan parsing failed, navigation log unavailable